Accueil
METAR-TAF:

METAR-TAF

Aéroports :

Roi Et, Thaïlande

latitude: 16-07-00N, longitude: 103-46-26E, altitude: 138 m

Observation

Le bulletin a été fait il y a 23 minutes, à 12:00 UTC
Vent 2 kt de nord
Température 32°C
Humidité 63%
Pression 1005 hPa
Visibilité: 7000 m

METAR: VTUV 281200Z 36002KT 7000 NSC 32/24 Q1005 NOSIG

Heure: 19:23 (12:23 UTC)

Prévision

Le bulletin a été fait il y a 1 heure et 23 minutes, à 11:00 UTC
Prévision valable du 28 à 12 UTC au 29 à 12 UTC
Vent 5 kt de sud
Visibilité: 8000 m
Evoluant progressivement
du 28 à 21 UTC au 28 à 23 UTC
Visibilité: 5000 m
brume
Evoluant progressivement
du 29 à 01 UTC au 29 à 03 UTC
Visibilité: 8000 m

TAF: VTUV 281100Z 2812/2912 19005KT 8000 NSC BECMG 2821/2823 5000 BR BECMG 2901/2903 8000 NSW

Observations et prévisions météorologiques de plus de 4000 aéroports (messages METAR et TAF).

Les stations disponibles sont représentées par des disques jaunes et rouges sur la carte.

Passer la souris dessus pour voir le nom de la station.

Cliquer dessus pour voir les observations et prévisions météorologiques.

Pour changer de carte: cliquez sur les boutons verts avec une croix noire pour zoomer, sur le bouton vert avec un tiret pour effectuer un zoom arrière, ou sur les flèches vertes pour les cartes adjacentes.


METAR-TAF: